Time;durP1;ratioP1;P1;durP2;ratioP2;P2;SDS_P1;SDS_P2;PMS_P1;PMS_P2;Temp;Humidity;BMP_temperature;BMP_pressure;BME280_temperature;BME280_humidity;BME280_pressure;Samples;Min_cycle;Max_cycle;Signal;HPM_P1;HPM_P2
2021/11/14 00:00:00;;;;;;;4.47;2.80;;;21.10;53.90;;;;;;6217806;28;20028;-69
2021/11/14 00:03:02;;;;;;;3.17;2.50;;;21.10;53.10;;;;;;6217410;28;20053;-69
2021/11/14 00:06:03;;;;;;;3.70;2.88;;;21.10;53.20;;;;;;6218737;28;20049;-69
2021/11/14 00:09:05;;;;;;;4.25;2.85;;;21.10;53.20;;;;;;6217759;28;20563;-69
2021/11/14 00:12:06;;;;;;;3.60;2.83;;;21.10;53.20;;;;;;6214603;28;20132;-69
2021/11/14 00:15:08;;;;;;;3.17;2.70;;;21.10;53.20;;;;;;6191878;28;20034;-69
2021/11/14 00:18:09;;;;;;;4.80;2.88;;;21.10;53.20;;;;;;6203932;28;20445;-69
2021/11/14 00:21:12;;;;;;;4.28;3.15;;;21.10;53.20;;;;;;6211241;28;20038;-69
2021/11/14 00:24:14;;;;;;;3.63;2.78;;;21.10;53.20;;;;;;6212188;28;20582;-69
2021/11/14 00:27:15;;;;;;;3.60;2.60;;;21.10;53.90;;;;;;6217456;28;20037;-69
2021/11/14 00:30:16;;;;;;;3.05;2.42;;;21.10;53.20;;;;;;6208761;28;20026;-70
2021/11/14 00:33:17;;;;;;;4.60;3.30;;;21.10;53.20;;;;;;6211401;28;20030;-69
2021/11/14 00:36:21;;;;;;;3.60;2.65;;;21.10;53.20;;;;;;6232371;28;20029;-69
2021/11/14 00:39:22;;;;;;;3.65;2.80;;;21.10;53.20;;;;;;6217218;28;20028;-69
2021/11/14 00:42:22;;;;;;;4.00;3.20;;;21.10;53.20;;;;;;6215559;28;20026;-69
2021/11/14 00:45:25;;;;;;;4.28;2.80;;;21.10;53.20;;;;;;6200733;28;20026;-68
2021/11/14 00:48:26;;;;;;;4.28;2.75;;;21.10;53.20;;;;;;6210381;28;20053;-69
2021/11/14 00:51:30;;;;;;;3.55;2.88;;;21.10;53.20;;;;;;6216593;28;20032;-68
2021/11/14 00:54:31;;;;;;;3.00;2.42;;;21.10;53.20;;;;;;6216773;28;20529;-69
2021/11/14 00:57:31;;;;;;;4.35;2.72;;;21.10;53.20;;;;;;6216920;28;20030;-69
2021/11/14 01:00:33;;;;;;;3.63;3.20;;;21.10;53.30;;;;;;6216825;28;20478;-68
2021/11/14 01:03:34;;;;;;;3.97;2.80;;;21.10;53.30;;;;;;6231568;28;20029;-70
2021/11/14 01:06:34;;;;;;;4.35;2.90;;;21.10;53.30;;;;;;6216833;28;20064;-69
2021/11/14 01:09:35;;;;;;;2.85;2.30;;;21.10;53.20;;;;;;6215277;28;20088;-69
2021/11/14 01:12:36;;;;;;;3.28;2.90;;;21.10;53.30;;;;;;6207108;28;20114;-69
2021/11/14 01:15:38;;;;;;;3.80;2.85;;;21.00;53.20;;;;;;6190818;28;20108;-69
2021/11/14 01:18:38;;;;;;;4.28;3.15;;;21.10;53.20;;;;;;6204925;28;20053;-69
2021/11/14 01:21:39;;;;;;;4.13;3.20;;;21.10;53.30;;;;;;6214828;28;20022;-69
2021/11/14 01:24:40;;;;;;;4.28;2.70;;;21.10;53.30;;;;;;6215651;28;20447;-69
2021/11/14 01:27:41;;;;;;;3.47;2.65;;;21.10;53.30;;;;;;6216369;28;20489;-69
2021/11/14 01:30:45;;;;;;;3.55;2.85;;;21.10;53.20;;;;;;6180142;28;20034;-69
2021/11/14 01:33:45;;;;;;;3.50;2.67;;;21.10;53.30;;;;;;6212344;28;20084;-69
2021/11/14 01:36:46;;;;;;;3.03;2.60;;;21.10;53.20;;;;;;6216299;28;20026;-69
2021/11/14 01:39:46;;;;;;;4.10;2.92;;;21.00;53.10;;;;;;6216150;28;20030;-69
2021/11/14 01:42:48;;;;;;;3.92;2.67;;;21.10;53.20;;;;;;6230954;28;20034;-69
2021/11/14 01:45:49;;;;;;;3.97;2.75;;;21.00;53.10;;;;;;6216249;28;20351;-69
2021/11/14 01:48:50;;;;;;;3.25;2.63;;;21.00;53.20;;;;;;6215849;28;20026;-69
2021/11/14 01:51:52;;;;;;;3.55;2.70;;;21.00;53.10;;;;;;6211912;28;20390;-69
2021/11/14 01:54:53;;;;;;;4.05;2.90;;;21.00;53.10;;;;;;6206546;28;20514;-69
2021/11/14 01:57:55;;;;;;;3.67;2.80;;;21.00;53.10;;;;;;6203105;28;20022;-69
2021/11/14 02:01:05;;;;;;;3.30;2.70;;;21.10;53.20;;;;;;6216209;28;20033;-69
2021/11/14 02:04:07;;;;;;;3.10;2.60;;;21.00;53.10;;;;;;6214508;28;20041;-69
2021/11/14 02:07:12;;;;;;;3.90;2.75;;;21.00;53.20;;;;;;6215959;28;20030;-69
2021/11/14 02:10:13;;;;;;;4.28;2.97;;;21.00;53.20;;;;;;6215447;28;20034;-68
2021/11/14 02:13:14;;;;;;;3.65;2.80;;;21.00;53.20;;;;;;6207688;28;20432;-67
2021/11/14 02:16:20;;;;;;;4.03;2.80;;;21.00;53.20;;;;;;6190240;28;20030;-69
2021/11/14 02:19:21;;;;;;;4.85;2.85;;;21.00;53.20;;;;;;6205277;28;20033;-69
2021/11/14 02:22:21;;;;;;;2.83;2.35;;;21.00;53.20;;;;;;6215840;28;20057;-69
2021/11/14 02:25:23;;;;;;;3.10;2.50;;;21.00;53.20;;;;;;6236194;28;20030;-70
2021/11/14 02:28:25;;;;;;;3.35;2.60;;;21.00;53.20;;;;;;6220970;28;20097;-70
2021/11/14 02:31:27;;;;;;;3.95;2.70;;;21.00;53.20;;;;;;6203507;28;20499;-69
2021/11/14 02:34:28;;;;;;;3.65;3.10;;;21.00;53.20;;;;;;6220678;28;20037;-69
2021/11/14 02:37:28;;;;;;;3.53;2.63;;;21.00;53.20;;;;;;6209263;28;20148;-69
2021/11/14 02:40:29;;;;;;;3.17;2.47;;;21.00;53.20;;;;;;6197946;28;20027;-70
2021/11/14 02:43:30;;;;;;;4.05;2.95;;;21.00;53.20;;;;;;6215701;28;20547;-70
2021/11/14 02:46:31;;;;;;;3.47;2.55;;;21.00;53.10;;;;;;6222594;28;20065;-69
2021/11/14 02:49:31;;;;;;;2.75;2.42;;;21.00;53.10;;;;;;6220645;28;20030;-69
2021/11/14 02:52:32;;;;;;;3.78;2.80;;;21.00;53.20;;;;;;6220468;28;20168;-69
2021/11/14 02:55:33;;;;;;;3.30;2.55;;;21.00;53.20;;;;;;6222722;28;20113;-70
2021/11/14 02:58:33;;;;;;;4.93;3.05;;;21.00;53.20;;;;;;6221380;28;20026;-69
2021/11/14 03:01:41;;;;;;;3.60;2.60;;;21.00;53.20;;;;;;6220665;28;20379;-69
2021/11/14 03:04:43;;;;;;;2.90;2.30;;;21.00;53.20;;;;;;6220305;28;20022;-70
2021/11/14 03:07:44;;;;;;;3.25;2.47;;;21.00;53.20;;;;;;6211406;28;20038;-69
2021/11/14 03:10:46;;;;;;;3.00;2.60;;;21.00;53.20;;;;;;6196384;28;20038;-69
2021/11/14 03:13:47;;;;;;;2.90;2.45;;;21.00;53.20;;;;;;6201082;28;20050;-69
2021/11/14 03:16:48;;;;;;;2.70;2.40;;;21.00;53.20;;;;;;6196013;28;20023;-69
2021/11/14 03:19:48;;;;;;;3.55;2.78;;;21.00;53.20;;;;;;6219898;28;20029;-70
2021/11/14 03:22:50;;;;;;;3.10;2.60;;;21.00;53.20;;;;;;6219825;28;20030;-69
2021/11/14 03:25:50;;;;;;;3.13;2.63;;;21.00;53.20;;;;;;6219387;28;20038;-69
2021/11/14 03:28:51;;;;;;;3.90;2.75;;;21.00;53.20;;;;;;6221149;28;20156;-69
2021/11/14 03:31:52;;;;;;;3.90;2.83;;;21.00;53.20;;;;;;6192415;28;20403;-69
2021/11/14 03:34:52;;;;;;;3.63;2.83;;;21.00;53.20;;;;;;6219040;28;20121;-69
2021/11/14 03:37:53;;;;;;;3.00;2.42;;;21.00;53.20;;;;;;6204426;28;20551;-69
2021/11/14 03:40:55;;;;;;;3.10;2.50;;;21.00;53.20;;;;;;6195442;28;20093;-69
2021/11/14 03:43:55;;;;;;;2.90;2.38;;;21.00;53.20;;;;;;6196060;28;20027;-69
2021/11/14 03:46:56;;;;;;;3.78;2.90;;;21.00;53.20;;;;;;6200562;28;20026;-69
2021/11/14 03:49:57;;;;;;;2.88;2.40;;;21.00;53.20;;;;;;6205039;28;20031;-69
2021/11/14 03:52:58;;;;;;;3.60;2.60;;;21.00;53.20;;;;;;6210885;28;20096;-70
2021/11/14 03:55:58;;;;;;;3.45;2.40;;;21.00;53.20;;;;;;6195831;28;20023;-69
2021/11/14 03:58:59;;;;;;;3.10;2.47;;;21.00;53.20;;;;;;6215226;28;20395;-69
2021/11/14 04:02:01;;;;;;;2.80;2.45;;;21.00;53.20;;;;;;6214910;28;20397;-70
2021/11/14 04:05:02;;;;;;;3.92;2.97;;;21.00;53.20;;;;;;6194547;28;20022;-70
2021/11/14 04:08:10;;;;;;;3.78;2.72;;;21.00;53.20;;;;;;6205020;28;20029;-69
2021/11/14 04:11:10;;;;;;;2.97;2.38;;;21.00;53.20;;;;;;6218216;28;20037;-69
2021/11/14 04:14:11;;;;;;;3.30;2.45;;;21.00;53.20;;;;;;6204293;28;20074;-70
2021/11/14 04:17:12;;;;;;;2.63;2.30;;;21.00;53.30;;;;;;6196833;28;20080;-69
2021/11/14 04:20:13;;;;;;;3.13;2.58;;;21.00;53.30;;;;;;6220377;28;20037;-69
2021/11/14 04:23:17;;;;;;;3.13;2.53;;;21.00;53.20;;;;;;6226750;28;20022;-69
2021/11/14 04:26:17;;;;;;;3.17;2.53;;;21.00;53.30;;;;;;6207478;28;20100;-70
2021/11/14 04:29:18;;;;;;;3.58;2.75;;;21.00;53.30;;;;;;6217660;28;20026;-70
2021/11/14 04:32:18;;;;;;;2.22;2.00;;;21.00;53.20;;;;;;6205773;28;20034;-69
2021/11/14 04:35:20;;;;;;;2.95;2.38;;;21.00;53.30;;;;;;6219359;28;20397;-69
2021/11/14 04:38:21;;;;;;;2.90;2.40;;;21.00;53.30;;;;;;6219368;28;20414;-70
2021/11/14 04:41:22;;;;;;;2.70;2.30;;;21.00;53.20;;;;;;6217729;28;20052;-69
2021/11/14 04:44:24;;;;;;;2.78;2.28;;;21.00;53.30;;;;;;6217836;28;20033;-69
2021/11/14 04:47:25;;;;;;;3.30;2.40;;;21.00;53.30;;;;;;6217331;28;20022;-69
2021/11/14 04:50:26;;;;;;;2.67;2.13;;;21.00;53.30;;;;;;6217862;28;20430;-70
2021/11/14 04:53:27;;;;;;;2.80;2.05;;;21.00;53.30;;;;;;6217448;28;20026;-70
2021/11/14 04:56:28;;;;;;;4.22;2.67;;;21.00;53.20;;;;;;6217396;28;20567;-69
2021/11/14 04:59:29;;;;;;;3.22;2.58;;;21.00;53.20;;;;;;6192516;28;20052;-69
2021/11/14 05:02:29;;;;;;;3.05;2.53;;;21.00;53.30;;;;;;6192786;28;20026;-70
2021/11/14 05:05:31;;;;;;;3.78;2.67;;;21.00;53.20;;;;;;6202608;28;20034;-70
2021/11/14 05:08:32;;;;;;;2.58;2.33;;;21.00;53.30;;;;;;6217775;28;20033;-70
2021/11/14 05:11:32;;;;;;;3.00;2.33;;;21.00;53.30;;;;;;6218167;28;20050;-69
2021/11/14 05:14:33;;;;;;;3.40;2.40;;;21.00;53.30;;;;;;6199539;28;20411;-69
2021/11/14 05:17:34;;;;;;;3.58;2.60;;;21.00;53.30;;;;;;6212094;28;20390;-69
2021/11/14 05:20:36;;;;;;;3.58;2.70;;;21.00;53.30;;;;;;6216857;28;20176;-69
2021/11/14 05:23:38;;;;;;;2.95;2.50;;;21.00;53.30;;;;;;6211329;28;20030;-70
2021/11/14 05:26:38;;;;;;;2.83;2.20;;;21.00;53.30;;;;;;6209055;28;20550;-69
2021/11/14 05:29:39;;;;;;;3.55;2.47;;;21.00;53.30;;;;;;6214182;28;20018;-70
2021/11/14 05:32:40;;;;;;;2.45;2.00;;;21.00;53.30;;;;;;6206664;28;20025;-69
2021/11/14 05:35:41;;;;;;;3.10;2.40;;;21.00;53.30;;;;;;6216843;28;20045;-69
2021/11/14 05:38:42;;;;;;;2.97;2.58;;;21.00;53.30;;;;;;6216462;28;20018;-69
2021/11/14 05:41:43;;;;;;;2.97;2.40;;;21.00;53.30;;;;;;6204627;28;20026;-70
2021/11/14 05:44:44;;;;;;;3.10;2.40;;;21.00;53.30;;;;;;6216382;28;20073;-70
2021/11/14 05:47:45;;;;;;;4.40;2.85;;;21.00;53.30;;;;;;6216137;28;20435;-69
2021/11/14 05:50:46;;;;;;;3.63;2.45;;;21.00;54.00;;;;;;6216572;28;20026;-70
2021/11/14 05:53:46;;;;;;;2.97;2.38;;;21.00;53.30;;;;;;6217780;28;20548;-69
2021/11/14 05:56:47;;;;;;;3.03;2.33;;;21.00;53.30;;;;;;6217830;28;20065;-69
2021/11/14 06:00:07;;;;;;;3.22;2.40;;;21.00;53.20;;;;;;6219534;28;20395;-69
2021/11/14 06:03:24;;;;;;;3.50;2.83;;;21.00;53.20;;;;;;6214237;28;20030;-69
2021/11/14 06:06:25;;;;;;;2.97;2.17;;;21.00;53.20;;;;;;6221218;28;20026;-69
2021/11/14 06:09:25;;;;;;;3.20;2.60;;;21.00;53.20;;;;;;6221017;28;20061;-70
2021/11/14 06:12:27;;;;;;;3.35;2.55;;;21.00;53.20;;;;;;6201775;28;20053;-69
2021/11/14 06:15:28;;;;;;;3.20;2.53;;;21.00;53.30;;;;;;6196919;28;20440;-69
2021/11/14 06:18:29;;;;;;;3.50;2.53;;;21.00;53.20;;;;;;6208502;28;20110;-69
2021/11/14 06:21:29;;;;;;;2.75;2.25;;;21.00;53.20;;;;;;6221679;28;20034;-69
2021/11/14 06:24:30;;;;;;;3.78;2.85;;;21.00;53.20;;;;;;6202518;28;20045;-69
2021/11/14 06:27:30;;;;;;;2.30;2.10;;;21.00;53.20;;;;;;6206855;28;20034;-70
2021/11/14 06:30:32;;;;;;;3.65;2.42;;;21.00;53.20;;;;;;6197523;28;20031;-69
2021/11/14 06:33:32;;;;;;;2.97;2.30;;;21.00;53.90;;;;;;6216764;28;20080;-69
2021/11/14 06:36:33;;;;;;;2.53;2.13;;;21.00;53.20;;;;;;6216866;28;20030;-69
2021/11/14 06:39:36;;;;;;;2.92;2.25;;;21.00;53.20;;;;;;6196183;28;20124;-69
2021/11/14 06:42:37;;;;;;;2.50;2.17;;;21.00;53.20;;;;;;6207959;28;20026;-69
2021/11/14 06:45:38;;;;;;;2.50;2.00;;;21.00;53.20;;;;;;6237130;28;20442;-70
2021/11/14 06:48:38;;;;;;;2.53;2.13;;;21.00;53.20;;;;;;6236905;28;20462;-69
2021/11/14 06:51:39;;;;;;;3.30;2.35;;;21.00;53.10;;;;;;6220069;28;20518;-70
2021/11/14 06:54:40;;;;;;;2.67;2.40;;;21.00;53.10;;;;;;6219745;28;20050;-69
2021/11/14 06:57:41;;;;;;;2.83;2.33;;;21.00;53.20;;;;;;6221537;28;20395;-70
2021/11/14 07:00:42;;;;;;;2.85;2.22;;;21.00;53.10;;;;;;6221157;28;20022;-69
2021/11/14 07:03:43;;;;;;;3.33;2.40;;;21.00;53.10;;;;;;6204063;28;20057;-69
2021/11/14 07:06:45;;;;;;;3.53;2.45;;;21.00;53.10;;;;;;6195771;28;20019;-69
2021/11/14 07:09:46;;;;;;;3.40;2.65;;;21.00;53.10;;;;;;6215211;28;20037;-70
2021/11/14 07:12:46;;;;;;;2.95;2.38;;;21.00;53.10;;;;;;6197867;28;20058;-69
2021/11/14 07:15:47;;;;;;;3.90;2.45;;;21.00;53.20;;;;;;6195360;28;20030;-69
2021/11/14 07:18:48;;;;;;;3.15;2.53;;;21.00;53.10;;;;;;6195118;28;20027;-70
2021/11/14 07:21:49;;;;;;;3.10;2.25;;;21.00;53.10;;;;;;6196341;28;20026;-69
2021/11/14 07:24:49;;;;;;;3.22;2.25;;;21.00;53.20;;;;;;6214859;28;20021;-69
2021/11/14 07:27:53;;;;;;;3.58;2.90;;;21.00;53.10;;;;;;6211167;28;20038;-69
2021/11/14 07:30:54;;;;;;;2.83;2.10;;;21.00;53.10;;;;;;6198421;28;20431;-69
2021/11/14 07:33:54;;;;;;;3.75;2.65;;;21.00;53.10;;;;;;6220239;28;20115;-69
2021/11/14 07:36:55;;;;;;;3.03;2.50;;;21.00;53.20;;;;;;6220749;28;20096;-69
2021/11/14 07:39:55;;;;;;;2.80;2.30;;;21.00;53.10;;;;;;6220470;28;20243;-70
2021/11/14 07:42:56;;;;;;;3.60;2.33;;;21.00;53.10;;;;;;6204360;28;20029;-69
2021/11/14 07:45:57;;;;;;;3.25;2.40;;;21.00;53.10;;;;;;6194714;28;20034;-69
2021/11/14 07:48:58;;;;;;;2.60;2.13;;;21.00;53.10;;;;;;6218035;28;20041;-69
2021/11/14 07:51:58;;;;;;;3.38;2.72;;;21.00;53.10;;;;;;6220317;28;20476;-69
2021/11/14 07:54:59;;;;;;;3.35;2.42;;;21.00;53.10;;;;;;6218855;28;20025;-69
2021/11/14 07:58:04;;;;;;;3.10;2.40;;;20.90;53.00;;;;;;6220276;28;20054;-70
2021/11/14 08:01:04;;;;;;;3.22;2.53;;;21.00;53.10;;;;;;6219473;28;20039;-69
2021/11/14 08:04:05;;;;;;;2.95;2.50;;;20.90;53.00;;;;;;6199060;28;20417;-70
2021/11/14 08:07:06;;;;;;;2.75;2.45;;;20.90;53.70;;;;;;6195670;28;20215;-69
2021/11/14 08:10:08;;;;;;;3.13;2.40;;;21.00;53.10;;;;;;6218370;28;20032;-69
2021/11/14 08:13:09;;;;;;;3.55;2.60;;;20.90;53.00;;;;;;6208133;28;20886;-69
2021/11/14 08:16:10;;;;;;;2.60;2.28;;;21.00;53.10;;;;;;6195224;28;20033;-69
2021/11/14 08:19:10;;;;;;;3.72;2.58;;;21.00;53.00;;;;;;6211928;28;20026;-70
2021/11/14 08:22:11;;;;;;;3.35;2.70;;;21.00;53.10;;;;;;6220127;28;20036;-69
2021/11/14 08:25:13;;;;;;;3.22;2.53;;;21.00;53.10;;;;;;6217994;28;20426;-69
2021/11/14 08:28:15;;;;;;;3.88;2.92;;;20.90;53.00;;;;;;6218013;28;20026;-69
2021/11/14 08:31:20;;;;;;;3.50;2.38;;;21.00;53.00;;;;;;6199303;28;20022;-69
2021/11/14 08:34:21;;;;;;;3.22;2.80;;;21.00;53.00;;;;;;6218452;28;20030;-69
2021/11/14 08:37:21;;;;;;;3.17;2.17;;;21.00;53.00;;;;;;6207060;28;20049;-70
2021/11/14 08:40:23;;;;;;;3.58;2.58;;;20.90;53.00;;;;;;6193378;28;20022;-69
2021/11/14 08:43:24;;;;;;;3.63;2.90;;;20.90;52.90;;;;;;6211585;28;20022;-70
2021/11/14 08:46:25;;;;;;;3.20;2.47;;;21.00;53.10;;;;;;6217040;28;20087;-69
2021/11/14 08:49:26;;;;;;;2.92;2.50;;;20.90;52.90;;;;;;6217890;28;20390;-69
2021/11/14 08:52:28;;;;;;;4.22;3.17;;;21.00;53.00;;;;;;6218975;28;20033;-69
2021/11/14 08:55:29;;;;;;;5.47;2.78;;;21.00;53.00;;;;;;6218228;28;20121;-69
2021/11/14 08:58:31;;;;;;;4.13;2.88;;;20.90;52.90;;;;;;6217201;28;20053;-68
2021/11/14 09:01:32;;;;;;;3.33;2.78;;;20.90;52.90;;;;;;6217478;28;20072;-69
2021/11/14 09:04:33;;;;;;;4.57;3.05;;;21.00;52.90;;;;;;6192213;28;20022;-69
2021/11/14 09:07:33;;;;;;;4.13;2.67;;;21.00;52.90;;;;;;6198936;28;20122;-69
2021/11/14 09:10:36;;;;;;;4.07;3.10;;;20.90;52.80;;;;;;6217991;28;20022;-70
2021/11/14 09:13:37;;;;;;;3.95;3.08;;;20.90;52.80;;;;;;6206858;28;20149;-69
2021/11/14 09:16:38;;;;;;;3.42;2.90;;;20.90;52.80;;;;;;6192587;28;20022;-69
2021/11/14 09:19:40;;;;;;;4.03;2.70;;;21.00;53.00;;;;;;6216106;28;20030;-70
2021/11/14 09:22:41;;;;;;;5.28;3.60;;;21.00;52.90;;;;;;6217753;28;20129;-69
2021/11/14 09:25:42;;;;;;;4.22;3.30;;;20.90;52.90;;;;;;6217427;28;20437;-69
2021/11/14 09:28:43;;;;;;;3.78;2.83;;;21.00;53.00;;;;;;6193137;28;20459;-70
2021/11/14 09:31:44;;;;;;;5.25;3.35;;;21.00;53.00;;;;;;6197968;28;20120;-69
2021/11/14 09:34:45;;;;;;;3.72;2.80;;;21.00;53.10;;;;;;6216458;28;20506;-69
2021/11/14 09:37:46;;;;;;;4.05;3.20;;;21.00;53.10;;;;;;6217330;28;20092;-69
2021/11/14 09:40:46;;;;;;;6.53;3.30;;;21.00;53.10;;;;;;6218107;28;20379;-70
2021/11/14 09:43:47;;;;;;;4.68;3.35;;;21.00;53.10;;;;;;6195796;28;20030;-70
2021/11/14 09:46:59;;;;;;;3.85;2.70;;;21.00;53.10;;;;;;6197140;28;20026;-70
2021/11/14 09:50:02;;;;;;;4.05;3.03;;;21.00;53.20;;;;;;6218130;28;20094;-69
2021/11/14 09:53:04;;;;;;;4.18;3.33;;;21.00;53.10;;;;;;6217047;28;20033;-69
2021/11/14 09:56:06;;;;;;;4.50;3.38;;;21.00;53.10;;;;;;6216959;28;20064;-69
2021/11/14 09:59:08;;;;;;;4.90;3.30;;;21.00;53.10;;;;;;6217809;28;20030;-70
2021/11/14 10:02:10;;;;;;;5.00;3.65;;;21.00;53.10;;;;;;6213090;28;20109;-70
2021/11/14 10:05:14;;;;;;;4.75;3.80;;;21.00;53.10;;;;;;6192638;28;20149;-69
2021/11/14 10:08:17;;;;;;;4.75;3.67;;;21.00;53.10;;;;;;6203315;28;20064;-69
2021/11/14 10:11:17;;;;;;;5.38;3.50;;;21.00;53.10;;;;;;6216929;28;20026;-69
2021/11/14 10:14:22;;;;;;;4.80;3.40;;;21.00;53.10;;;;;;6201441;28;20045;-69
2021/11/14 10:17:26;;;;;;;4.82;3.50;;;21.00;53.10;;;;;;6191969;28;20029;-69
2021/11/14 10:20:29;;;;;;;4.13;3.17;;;21.00;53.10;;;;;;6192010;28;20129;-69
2021/11/14 10:23:32;;;;;;;5.00;3.55;;;21.00;53.10;;;;;;6203847;28;20070;-67
2021/11/14 10:26:34;;;;;;;5.57;3.70;;;21.00;53.20;;;;;;6205152;28;20029;-67
2021/11/14 10:29:37;;;;;;;7.90;3.80;;;21.00;53.20;;;;;;6212319;28;20423;-69
2021/11/14 10:32:37;;;;;;;4.88;3.53;;;21.00;53.20;;;;;;6205435;28;20026;-70
2021/11/14 10:35:41;;;;;;;5.10;3.90;;;21.00;53.20;;;;;;6214599;28;20037;-69
2021/11/14 10:38:41;;;;;;;4.70;3.47;;;21.00;53.20;;;;;;6194223;28;20349;-69
2021/11/14 10:41:47;;;;;;;5.07;3.75;;;21.00;53.20;;;;;;6195952;28;20111;-69
2021/11/14 10:44:51;;;;;;;4.95;3.75;;;21.00;53.20;;;;;;6216991;28;20381;-69
2021/11/14 10:48:04;;;;;;;5.25;4.05;;;21.00;53.20;;;;;;6205265;28;20022;-70
2021/11/14 10:51:07;;;;;;;4.10;3.40;;;21.00;53.20;;;;;;6196097;28;20209;-70
2021/11/14 10:54:10;;;;;;;5.55;4.07;;;21.00;53.20;;;;;;6217952;28;20026;-70
2021/11/14 10:57:12;;;;;;;5.00;3.72;;;21.00;53.20;;;;;;6219852;28;20104;-69
2021/11/14 11:00:14;;;;;;;3.92;3.30;;;21.00;53.20;;;;;;6219766;28;20552;-70
2021/11/14 11:03:15;;;;;;;5.28;3.60;;;21.00;53.30;;;;;;6219551;28;20022;-70
2021/11/14 11:06:27;;;;;;;5.03;4.03;;;21.00;53.20;;;;;;6234660;28;20061;-69
2021/11/14 11:09:32;;;;;;;5.63;4.05;;;21.00;53.20;;;;;;6219632;28;20383;-70
2021/11/14 11:12:34;;;;;;;5.85;4.15;;;21.00;53.20;;;;;;6216947;28;20556;-69
2021/11/14 11:15:41;;;;;;;4.40;3.38;;;21.00;53.30;;;;;;6193701;28;20392;-69
2021/11/14 11:18:46;;;;;;;5.13;3.70;;;21.00;53.30;;;;;;6210143;28;20037;-69
2021/11/14 11:21:48;;;;;;;;;;;21.00;53.30;;;;;;6219973;28;20033;-69
2021/11/14 11:24:54;;;;;;;5.45;3.90;;;21.00;53.20;;;;;;6234328;28;19916;-69
2021/11/14 11:27:55;;;;;;;4.05;3.42;;;21.00;53.30;;;;;;6202073;28;20081;-70
2021/11/14 11:31:02;;;;;;;5.50;3.90;;;21.00;53.30;;;;;;6194639;28;20409;-69
2021/11/14 11:34:03;;;;;;;5.90;3.95;;;21.00;53.30;;;;;;6218867;28;20063;-69
2021/11/14 11:37:04;;;;;;;5.03;3.95;;;21.00;53.30;;;;;;6219048;28;20480;-70
2021/11/14 11:40:05;;;;;;;4.55;3.45;;;21.00;53.30;;;;;;6218821;28;20030;-69
2021/11/14 11:43:06;;;;;;;5.03;3.97;;;21.00;53.30;;;;;;6202666;28;20029;-69
2021/11/14 11:46:14;;;;;;;5.20;3.72;;;21.00;53.40;;;;;;6194664;28;20026;-70
2021/11/14 11:49:21;;;;;;;5.22;3.90;;;21.10;53.40;;;;;;6187275;28;20234;-70
2021/11/14 11:52:22;;;;;;;5.15;3.85;;;21.00;53.30;;;;;;6218311;28;20032;-70
2021/11/14 11:55:31;;;;;;;5.40;3.95;;;21.00;53.40;;;;;;6218788;28;20029;-69
2021/11/14 11:58:48;;;;;;;4.90;3.80;;;21.00;53.40;;;;;;6217599;28;20026;-70
2021/11/14 12:01:54;;;;;;;5.88;3.88;;;21.00;53.30;;;;;;6216124;28;20068;-69
2021/11/14 12:04:57;;;;;;;5.70;4.07;;;21.00;53.30;;;;;;6194219;28;20035;-69
2021/11/14 12:07:59;;;;;;;4.95;3.83;;;21.10;53.40;;;;;;6192498;28;20033;-69
2021/11/14 12:11:00;;;;;;;4.82;3.63;;;21.00;53.40;;;;;;6204224;28;20026;-69
2021/11/14 12:14:24;;;;;;;5.22;3.92;;;21.00;53.40;;;;;;6220475;28;20582;-70
2021/11/14 12:17:25;;;;;;;4.78;3.63;;;21.00;53.40;;;;;;6192851;28;20035;-69
2021/11/14 12:20:34;;;;;;;4.75;3.90;;;21.00;53.40;;;;;;6233396;28;20033;-69
2021/11/14 12:23:37;;;;;;;6.30;4.40;;;21.00;53.40;;;;;;6216544;28;20029;-70
2021/11/14 12:26:37;;;;;;;5.65;4.00;;;21.10;53.50;;;;;;6210245;28;20030;-69
2021/11/14 12:29:43;;;;;;;6.60;4.50;;;21.10;53.50;;;;;;6189795;28;20097;-70
2021/11/14 12:32:47;;;;;;;5.22;3.95;;;21.00;53.50;;;;;;6197522;28;20483;-69
2021/11/14 12:35:48;;;;;;;6.85;4.38;;;21.00;53.50;;;;;;6217531;28;20025;-69
2021/11/14 12:39:00;;;;;;;5.97;4.13;;;21.10;53.50;;;;;;6194740;28;20492;-69
2021/11/14 12:42:11;;;;;;;5.22;4.05;;;21.00;53.50;;;;;;6198786;28;20061;-70
2021/11/14 12:45:12;;;;;;;6.03;4.10;;;21.00;53.50;;;;;;6207829;28;20049;-69
2021/11/14 12:48:13;;;;;;;5.25;3.92;;;21.00;53.40;;;;;;6209164;28;20495;-69
2021/11/14 12:51:20;;;;;;;6.03;4.10;;;21.00;53.40;;;;;;6217668;28;20030;-69
2021/11/14 12:54:22;;;;;;;6.35;4.53;;;21.10;53.50;;;;;;6215694;28;20029;-69
2021/11/14 12:57:26;;;;;;;4.43;3.53;;;21.00;53.50;;;;;;6208158;28;20113;-69
2021/11/14 13:00:45;;;;;;;5.40;3.80;;;21.10;53.50;;;;;;6192698;28;20372;-69
2021/11/14 13:03:45;;;;;;;5.55;4.18;;;21.10;53.50;;;;;;6209127;28;20022;-69
2021/11/14 13:06:46;;;;;;;5.32;3.75;;;21.10;53.50;;;;;;6216810;28;20391;-69
2021/11/14 13:09:47;;;;;;;5.53;4.07;;;21.10;53.50;;;;;;6215837;28;20435;-69
2021/11/14 13:12:50;;;;;;;5.97;4.22;;;21.00;53.40;;;;;;6207383;28;20077;-69
2021/11/14 13:15:58;;;;;;;6.30;4.60;;;21.00;53.40;;;;;;6192424;28;20429;-69
2021/11/14 13:18:59;;;;;;;7.03;4.53;;;21.00;53.40;;;;;;6208896;28;20434;-69
2021/11/14 13:22:00;;;;;;;6.30;4.35;;;21.10;53.40;;;;;;6215486;28;20088;-70
2021/11/14 13:25:03;;;;;;;6.60;4.50;;;21.10;53.50;;;;;;6216458;28;20037;-69
2021/11/14 13:28:04;;;;;;;6.13;4.50;;;21.10;53.50;;;;;;6216643;28;20030;-69
2021/11/14 13:31:19;;;;;;;5.47;4.03;;;21.00;53.40;;;;;;6202539;28;20392;-69
2021/11/14 13:34:25;;;;;;;6.60;4.50;;;21.00;53.40;;;;;;6218488;28;20392;-70
2021/11/14 13:37:33;;;;;;;6.07;4.63;;;21.00;53.40;;;;;;6215965;28;20113;-69
2021/11/14 13:40:34;;;;;;;6.40;4.60;;;21.10;53.40;;;;;;6216139;28;20018;-69
2021/11/14 13:43:35;;;;;;;7.25;5.13;;;21.00;53.30;;;;;;6196127;28;20559;-69
2021/11/14 13:46:35;;;;;;;5.85;4.43;;;21.10;53.40;;;;;;6194801;28;20113;-69
2021/11/14 13:49:38;;;;;;;6.82;4.97;;;21.00;53.30;;;;;;6215321;28;20025;-69
2021/11/14 13:52:38;;;;;;;6.13;4.50;;;21.10;53.40;;;;;;6204239;28;20121;-69
2021/11/14 13:55:55;;;;;;;7.03;4.75;;;21.10;53.40;;;;;;6192122;28;20488;-70
2021/11/14 13:58:56;;;;;;;6.93;4.78;;;21.10;53.40;;;;;;6210718;28;20416;-69
2021/11/14 14:01:58;;;;;;;6.93;4.70;;;21.10;53.40;;;;;;6212396;28;20030;-69
2021/11/14 14:05:09;;;;;;;6.50;4.68;;;21.10;53.30;;;;;;6190384;28;20019;-69
2021/11/14 14:08:10;;;;;;;7.13;5.10;;;21.10;53.40;;;;;;6199415;28;20483;-70
2021/11/14 14:11:13;;;;;;;6.07;4.90;;;21.10;53.30;;;;;;6216102;28;20037;-69
2021/11/14 14:14:13;;;;;;;6.22;4.70;;;21.10;53.40;;;;;;6200238;28;20046;-69
2021/11/14 14:17:14;;;;;;;7.32;5.00;;;21.10;53.30;;;;;;6206857;28;20045;-69
2021/11/14 14:20:15;;;;;;;7.68;5.05;;;21.10;53.30;;;;;;6217521;28;20018;-69
2021/11/14 14:23:16;;;;;;;5.97;4.25;;;21.10;53.30;;;;;;6219044;28;20033;-69
2021/11/14 14:26:21;;;;;;;7.10;4.93;;;21.10;53.40;;;;;;6209840;28;20104;-69
2021/11/14 14:29:23;;;;;;;6.53;4.85;;;21.10;53.30;;;;;;6220226;28;20056;-70
2021/11/14 14:32:25;;;;;;;7.47;5.20;;;21.10;53.30;;;;;;6219595;28;20113;-69
2021/11/14 14:35:31;;;;;;;5.97;4.72;;;21.10;53.30;;;;;;6218985;28;20030;-69
2021/11/14 14:38:38;;;;;;;6.18;4.57;;;21.10;53.30;;;;;;6220332;28;20219;-69
2021/11/14 14:41:39;;;;;;;6.35;4.75;;;21.10;53.40;;;;;;6219976;28;20480;-69
2021/11/14 14:44:39;;;;;;;7.60;5.10;;;21.10;53.30;;;;;;6220066;28;20446;-69
2021/11/14 14:47:40;;;;;;;7.15;5.03;;;21.10;53.30;;;;;;6223269;28;20034;-69
2021/11/14 14:50:56;;;;;;;9.18;5.00;;;21.10;53.30;;;;;;6194530;28;20026;-69
2021/11/14 14:53:57;;;;;;;6.95;5.15;;;21.10;53.30;;;;;;6217126;28;20029;-69
2021/11/14 14:57:00;;;;;;;7.85;5.07;;;21.10;53.30;;;;;;6220008;28;20030;-69
2021/11/14 15:00:01;;;;;;;7.65;5.25;;;21.10;53.30;;;;;;6219929;28;20383;-69
2021/11/14 15:03:01;;;;;;;6.88;4.95;;;21.10;53.30;;;;;;6219483;28;20022;-69
2021/11/14 15:06:05;;;;;;;6.93;5.15;;;21.10;53.30;;;;;;6219793;28;20037;-69
2021/11/14 15:09:18;;;;;;;8.95;5.10;;;21.10;53.20;;;;;;6200145;28;20110;-69
2021/11/14 15:12:23;;;;;;;6.82;4.93;;;21.10;53.30;;;;;;6199787;28;20042;-69
2021/11/14 15:15:25;;;;;;;7.88;5.65;;;21.10;53.20;;;;;;6194073;28;20535;-69
2021/11/14 15:18:33;;;;;;;8.68;5.43;;;21.10;53.20;;;;;;6208288;28;20479;-70
2021/11/14 15:21:34;;;;;;;7.38;4.93;;;21.10;53.30;;;;;;6219149;28;20014;-69
2021/11/14 15:24:34;;;;;;;7.78;5.15;;;21.10;53.30;;;;;;6197612;28;20042;-69
2021/11/14 15:27:40;;;;;;;6.43;4.63;;;21.10;53.30;;;;;;6198998;28;20021;-69
2021/11/14 15:30:44;;;;;;;7.15;4.75;;;21.10;53.30;;;;;;6208500;28;20113;-69
2021/11/14 15:33:46;;;;;;;6.45;5.00;;;21.10;53.30;;;;;;6217848;28;20131;-69
2021/11/14 15:36:46;;;;;;;7.60;5.18;;;21.10;53.30;;;;;;6217539;28;20033;-69
2021/11/14 15:39:47;;;;;;;6.90;4.93;;;21.10;53.30;;;;;;6234444;28;20484;-69
2021/11/14 15:42:50;;;;;;;7.70;5.40;;;21.10;53.30;;;;;;6219109;28;20036;-70
2021/11/14 15:45:53;;;;;;;7.97;5.75;;;21.10;53.30;;;;;;6219194;28;20092;-70
2021/11/14 15:48:54;;;;;;;8.38;5.35;;;21.10;53.40;;;;;;6218368;28;20028;-70